Altoona, Pennsylvania
Current Conditions -  °F | °C
As of 4:53 AM on Saturday 25 Oct 2014 (Local Time) from KAOO Reporting Station
Scattered Clouds Scattered Clouds  
Wind Chill:   Ceiling: Unl
Heat Index:   Visibility: 10mi
Dew Point:   Wind: 3mph
Humidity: 79%   Direction: 140°SE
Pressure: 29.95"   Gusts: NA
Location:  40.51°N, 78.4°W
Report Text: KAOO 250853Z AUTO 14003KT 10SM SCT045 07/03 A2995 RMK AO2 SLP146 T00670033 58008
Loading
Personal Weather Stations






























Interactive Weather Map
Tropical Storm Tracking
New forecast layout! Learn more

10-Day Weather Forecast

Advertisements
Track Severe Weather on mobile